Latest Weather Observations for Cape Otway

IDV60801

Issued at 7:05 am EST Thursday 18 September 2014 (issued every 30 minutes, with the page automatically refreshed every 10 minutes)

About weather observations | Map of weather stations | Latest weather observations for VIC | Other Formats
Station Details ID: 090015 Name: CAPE OTWAY LIGHTHOUSE Lat: -38.86 Lon: 143.51 Height: 82.0 m
Data from the previous 72 hours. | See also: Recent months at Cape Otway
Date/Time
EST
Temp
°C
App
Temp
°C
Dew
Point
Rel
Hum
%
Delta-T
°C
Wind Press
QNH
hPa
Press
MSL
hPa
Rain
since 9 am
mm
Dir
 
Spd
km/h
Gust
km/h
Spd
kts
Gust
kts
18/07:05am 9.3 -0.2 4.1 70 2.3 SW 43 61 23 33 1021.9 - 2.4
18/07:04am 9.3 -0.2 4.1 70 2.3 SW 43 61 23 33 1021.9 - 2.4
18/07:00am 9.6 -0.5 3.9 67 2.5 SW 46 61 25 33 1021.7 - 2.2
18/06:53am 10.3 2.2 3.4 62 3.0 SW 35 56 19 30 1021.4 - 2.2
18/06:52am 10.3 2.2 3.4 62 3.0 SW 35 56 19 30 1021.4 - 2.2
18/06:30am 10.3 3.0 2.3 57 3.4 SW 30 44 16 24 1021.3 - 2.2
18/06:08am 10.5 3.2 4.5 66 2.7 SSW 32 50 17 27 1021.0 - 2.2
18/06:07am 10.5 3.2 4.5 66 2.7 SSW 32 50 17 27 1021.0 - 2.2
18/06:00am 10.2 3.0 3.0 61 3.1 SSW 30 44 16 24 1021.0 1021.1 2.2
18/05:40am 9.6 1.7 2.3 60 3.1 SSW 33 54 18 29 1020.9 - 2.2
18/05:30am 10.1 1.6 3.2 62 3.0 SSW 37 54 20 29 1020.6 - 2.2
18/05:25am 10.5 3.3 3.1 60 3.2 SW 30 50 16 27 1020.6 - 2.2
18/05:24am 10.5 3.3 3.1 60 3.2 SW 30 50 16 27 1020.6 - 2.2
18/05:00am 10.2 2.5 2.5 59 3.3 SW 32 44 17 24 1020.3 - 2.2
18/04:33am 10.5 2.7 1.4 53 3.8 SW 32 52 17 28 1020.2 - 2.0
18/04:32am 10.5 2.7 1.4 53 3.8 SW 32 52 17 28 1020.2 - 2.0
18/04:30am 10.4 2.9 1.0 52 3.9 SSW 30 43 16 23 1020.2 - 2.0
18/04:00am 10.5 1.8 2.3 57 3.5 SW 37 52 20 28 1020.0 - 2.0
18/03:30am 10.4 2.5 2.5 58 3.4 SW 33 44 18 24 1019.7 - 2.0
18/03:00am 10.2 2.8 4.1 66 2.7 SW 32 46 17 25 1019.5 1019.7 2.0
18/02:57am 10.5 3.3 5.2 70 2.4 SW 32 35 17 19 1019.6 - 2.0
18/02:50am 10.5 1.8 2.3 57 3.5 SSW 37 48 20 26 1019.4 - 2.0
18/02:30am 10.5 2.5 3.7 63 3.0 SW 35 48 19 26 1019.5 - 2.0
18/02:00am 9.8 0.5 2.8 61 3.0 SW 41 54 22 29 1019.7 - 2.0
18/01:48am 10.1 0.8 4.8 69 2.4 SW 43 65 23 35 1019.4 - 2.0
18/01:47am 10.1 0.8 4.8 69 2.4 SW 43 65 23 35 1019.4 - 2.0
18/01:30am 10.5 1.7 3.7 63 3.0 SW 39 52 21 28 1019.6 - 2.0
18/01:00am 10.2 1.1 3.8 64 2.8 SW 41 65 22 35 1019.5 - 2.0
18/12:49am 10.5 1.0 3.7 63 3.0 SW 43 63 23 34 1019.4 - 2.0
18/12:48am 10.5 1.0 3.7 63 3.0 SW 43 63 23 34 1019.4 - 2.0
18/12:30am 10.2 0.0 3.0 61 3.1 SW 46 61 25 33 1019.4 - 2.0
18/12:00am 10.1 0.6 4.0 66 2.7 SW 43 56 23 30 1019.4 1019.5 2.0
 
Date/Time
EST
Temp
°C
App
Temp
°C
Dew
Point
Rel
Hum
%
Delta-T
°C
Wind Press
QNH
hPa
Press
MSL
hPa
Rain
since 9 am
mm
Dir
 
Spd
km/h
Gust
km/h
Spd
kts
Gust
kts
17/11:30pm 9.6 0.2 4.4 70 2.3 SW 43 65 23 35 1019.2 - 2.0
17/11:24pm 10.3 1.1 5.3 71 2.3 SW 43 63 23 34 1019.2 - 2.0
17/11:23pm 10.3 1.1 5.3 71 2.3 SW 43 63 23 34 1019.2 - 2.0
17/11:00pm 10.6 0.7 1.8 54 3.7 WSW 43 57 23 31 1019.1 - 2.0
17/10:54pm 10.8 0.8 2.4 56 3.6 SW 44 63 24 34 1019.1 - 2.0
17/10:53pm 10.8 0.8 2.4 56 3.6 SW 44 63 24 34 1019.1 - 2.0
17/10:30pm 10.7 0.7 0.8 50 4.1 SW 43 57 23 31 1019.0 - 2.0
17/10:00pm 10.5 0.8 3.1 60 3.2 SW 43 61 23 33 1018.9 - 2.0
17/09:32pm 10.2 1.4 3.6 63 2.9 WSW 39 59 21 32 1018.8 - 2.0
17/09:31pm 10.2 1.4 3.6 63 2.9 WSW 39 59 21 32 1018.8 - 2.0
17/09:30pm 10.2 1.5 3.9 65 2.8 WSW 39 52 21 28 1018.8 - 2.0
17/09:01pm 10.5 0.8 2.6 58 3.4 WSW 43 63 23 34 1018.4 - 2.0
17/09:00pm 10.5 0.8 2.9 59 3.3 WSW 43 63 23 34 1018.4 1018.5 2.0
17/08:42pm 10.3 1.5 3.7 63 2.9 WSW 39 57 21 31 1018.2 - 2.0
17/08:30pm 10.2 0.9 3.0 61 3.1 WSW 41 57 22 31 1018.2 - 2.0
17/08:26pm 10.2 2.0 4.6 68 2.5 WSW 37 56 20 30 1018.1 - 2.0
17/08:25pm 10.2 2.0 4.6 68 2.5 WSW 37 56 20 30 1018.1 - 2.0
17/08:00pm 8.9 2.1 4.9 76 1.8 W 30 43 16 23 1018.2 - 2.0
17/07:49pm 9.1 -1.4 5.8 80 1.5 WSW 50 69 27 37 1018.1 - 1.8
17/07:48pm 9.1 -1.4 5.8 80 1.5 WSW 50 69 27 37 1018.1 - 1.8
17/07:46pm 9.7 -2.1 5.5 75 1.9 WSW 57 69 31 37 1017.8 - 1.8
17/07:45pm 9.7 -2.0 5.5 75 1.9 WSW 56 69 30 37 1017.8 - 1.8
17/07:44pm 10.4 1.5 5.1 69 2.4 W 41 65 22 35 1017.9 - 1.8
17/07:43pm 10.4 1.5 5.1 69 2.4 W 41 65 22 35 1017.9 - 1.8
17/07:41pm 9.9 1.3 4.5 69 2.4 W 39 52 21 28 1017.8 - 1.8
17/07:36pm 10.1 1.6 5.3 72 2.2 W 39 50 21 27 1017.8 - 1.8
17/07:33pm 10.5 1.9 4.5 66 2.7 WSW 39 57 21 31 1017.8 - 1.8
17/07:32pm 10.5 1.9 4.5 66 2.7 WSW 39 57 21 31 1017.8 - 1.8
17/07:30pm 10.4 1.1 3.0 60 3.2 WSW 41 57 22 31 1017.7 - 1.8
17/07:01pm 10.0 0.6 4.4 68 2.5 SW 43 65 23 35 1017.5 - 1.8
17/07:00pm 9.7 0.0 3.8 66 2.6 SW 44 69 24 37 1017.4 - 1.8
17/06:32pm 10.0 1.7 4.1 67 2.6 WSW 37 61 20 33 1017.2 - 1.8
17/06:30pm 10.0 1.7 4.1 67 2.6 WSW 37 61 20 33 1017.2 - 1.8
17/06:20pm 9.2 2.7 4.5 72 2.1 W 28 33 15 18 1017.4 - 1.6
17/06:00pm 9.3 -0.5 3.5 67 2.5 SW 44 61 24 33 1017.4 1017.5 1.6
17/05:30pm 8.8 -2.0 4.0 72 2.1 SW 50 72 27 39 1017.0 - 1.6
17/05:26pm 8.8 -3.2 4.5 74 1.9 SW 57 76 31 41 1016.9 - 1.6
17/05:22pm 9.5 -2.8 5.1 74 2.0 SW 59 76 32 41 1016.5 - 1.6
17/05:08pm 10.6 1.4 3.3 60 3.2 WSW 41 59 22 32 1016.5 - 1.6
17/05:07pm 10.5 1.1 2.6 58 3.4 WSW 41 59 22 32 1016.4 - 1.6
17/05:00pm 10.7 0.9 3.1 59 3.3 SW 44 57 24 31 1016.3 - 1.6
17/04:51pm 10.7 1.9 3.7 62 3.1 WSW 39 61 21 33 1016.2 - 1.6
17/04:46pm 10.2 2.5 3.6 63 2.9 WSW 33 46 18 25 1016.3 - 1.6
17/04:30pm 9.1 -1.3 4.4 72 2.1 SW 48 72 26 39 1016.2 - 1.6
17/04:28pm 10.0 0.3 3.9 66 2.7 SW 44 63 24 34 1016.3 - 1.6
17/04:23pm 9.6 -0.9 3.9 67 2.5 SW 48 74 26 40 1016.1 - 1.6
17/04:22pm 9.8 0.3 4.9 71 2.2 SW 44 57 24 31 1016.0 - 1.6
17/04:04pm 10.5 1.2 3.2 60 3.2 WSW 41 59 22 32 1015.8 - 1.6
17/04:02pm 10.5 1.2 3.2 60 3.2 WSW 41 59 22 32 1015.8 - 1.6
17/04:00pm 10.7 1.0 3.1 59 3.3 WSW 43 59 23 32 1015.8 - 1.6
17/03:47pm 10.0 2.1 4.1 67 2.6 W 35 57 19 31 1015.8 - 1.6
17/03:37pm 8.8 0.6 5.0 77 1.7 W 37 61 20 33 1015.8 - 1.6
17/03:35pm 9.1 -0.4 5.1 76 1.8 W 44 61 24 33 1015.7 - 1.6
17/03:30pm 9.7 0.1 4.6 70 2.3 SW 44 69 24 37 1015.7 - 1.6
17/03:20pm 10.6 0.7 3.0 59 3.3 SW 44 63 24 34 1015.5 - 1.6
17/03:18pm 10.6 0.7 3.0 59 3.3 SW 44 63 24 34 1015.5 - 1.6
17/03:00pm 11.0 1.1 2.7 56 3.6 WSW 44 57 24 31 1015.1 1015.3 1.6
17/02:30pm 11.3 1.8 3.9 60 3.3 WSW 43 61 23 33 1014.9 - 1.6
17/02:00pm 11.4 1.1 2.9 56 3.7 WSW 46 69 25 37 1014.6 - 1.6
17/01:31pm 10.7 0.6 4.0 63 3.0 WSW 46 65 25 35 1014.2 - 1.6
17/01:30pm 10.9 0.8 3.9 62 3.1 WSW 46 65 25 35 1014.2 - 1.6
17/01:06pm 10.4 -0.1 3.9 64 2.9 WSW 48 67 26 36 1014.1 - 1.6
17/01:04pm 10.4 -0.1 3.9 64 2.9 WSW 48 67 26 36 1014.1 - 1.6
17/01:00pm 10.8 0.6 5.1 68 2.6 WSW 48 63 26 34 1014.1 - 1.6
17/12:32pm 9.9 -0.4 4.5 69 2.4 WSW 48 67 26 36 1014.0 - 1.6
17/12:30pm 9.9 -0.4 4.5 69 2.4 WSW 48 67 26 36 1014.0 - 1.6
17/12:01pm 9.8 -0.7 5.7 75 1.9 SW 50 69 27 37 1013.9 - 1.4
17/12:00pm 9.7 -1.1 5.8 77 1.8 SW 52 69 28 37 1013.9 1013.9 1.4
17/11:59am 9.8 -0.7 5.7 75 1.9 SW 50 69 27 37 1013.9 - 1.4
17/11:49am 9.3 -2.7 6.5 83 1.3 SW 59 69 32 37 1013.8 - 1.4
17/11:35am 9.4 -0.1 6.8 84 1.2 W 46 65 25 35 1013.7 - 1.2
17/11:33am 9.4 0.3 6.8 84 1.2 W 44 65 24 35 1013.7 - 1.2
17/11:30am 9.5 0.1 7.2 85 1.1 W 46 59 25 32 1013.8 - 1.2
17/11:15am 10.2 -0.2 5.9 74 2.0 W 50 93 27 50 1013.5 - 0.0
17/11:13am 10.2 -0.2 5.9 74 2.0 W 50 93 27 50 1013.5 - 0.0
17/11:00am 10.9 1.5 4.2 63 3.0 WSW 43 70 23 38 1013.5 - 0.0
17/10:40am 10.9 0.9 6.2 73 2.2 WSW 48 67 26 36 1013.4 - 0.0
17/10:39am 11.2 0.8 6.1 71 2.4 SW 50 67 27 36 1013.4 - 0.0
17/10:33am 11.7 3.0 3.9 59 3.5 W 39 57 21 31 1013.4 - 0.0
17/10:31am 11.7 3.0 3.9 59 3.5 W 39 57 21 31 1013.4 - 0.0
17/10:30am 11.5 2.3 3.4 57 3.6 W 41 57 22 31 1013.4 - 0.0
17/10:00am 11.5 1.7 2.2 53 4.0 WSW 43 61 23 33 1013.3 - 0.0
17/09:30am 10.9 0.4 1.7 53 3.9 WSW 46 67 25 36 1012.9 - 0.0
17/09:01am 11.2 1.0 5.4 67 2.7 WSW 48 67 26 36 1012.8 - 0.0
17/09:00am 11.1 0.9 5.0 66 2.8 WSW 48 67 26 36 1012.7 1012.9 8.4
17/08:30am 11.0 2.0 6.6 74 2.1 WSW 43 63 23 34 1012.4 - 8.4
17/08:00am 10.6 1.4 6.3 75 2.0 W 44 65 24 35 1012.3 - 8.4
17/07:48am 11.2 2.4 5.6 68 2.6 W 41 61 22 33 1012.0 - 8.4
17/07:46am 11.2 2.4 5.6 68 2.6 W 41 61 22 33 1012.0 - 8.4
17/07:30am 11.2 2.8 5.6 68 2.6 W 39 54 21 29 1011.9 - 8.4
17/07:03am 11.1 3.2 8.0 81 1.5 WSW 39 57 21 31 1011.6 - 8.4
17/07:01am 11.1 3.2 8.0 81 1.5 WSW 39 57 21 31 1011.6 - 8.4
17/07:00am 11.2 3.7 7.9 80 1.6 WSW 37 54 20 29 1011.7 - 8.4
17/06:30am 10.9 3.6 7.4 79 1.7 W 35 54 19 29 1011.5 - 8.4
17/06:23am 10.6 3.2 6.8 77 1.8 W 35 54 19 29 1011.5 - 8.4
17/06:21am 10.6 3.2 6.8 77 1.8 W 35 54 19 29 1011.5 - 8.4
17/06:00am 11.2 4.2 6.8 74 2.1 W 33 46 18 25 1011.6 1011.7 8.4
17/05:30am 11.0 3.6 6.8 75 2.0 W 35 48 19 26 1011.5 - 8.4
17/05:00am 11.0 4.0 7.0 76 1.9 WSW 33 46 18 25 1011.5 - 8.2
17/04:30am 10.9 4.1 6.7 75 2.0 W 32 46 17 25 1011.4 - 8.2
17/04:00am 10.5 4.0 8.3 86 1.1 WSW 32 44 17 24 1011.2 - 8.2
17/03:30am 9.8 4.9 8.6 92 0.6 W 24 35 13 19 1011.5 - 7.8
17/03:00am 9.7 5.6 8.0 89 0.8 NW 19 30 10 16 1011.7 1011.8 6.0
17/02:30am 8.9 2.9 7.2 89 0.8 WNW 28 39 15 21 1011.7 - 4.4
17/02:00am 10.0 5.3 7.7 86 1.1 NW 22 35 12 19 1011.5 - 2.8
17/01:30am 9.9 5.6 7.8 87 1.0 NW 20 35 11 19 1011.8 - 2.8
17/01:00am 9.9 5.8 8.0 88 0.9 NW 19 28 10 15 1011.9 - 2.8
17/12:30am 9.6 5.8 7.7 88 0.9 NNW 17 22 9 12 1012.0 - 2.8
17/12:00am 9.8 6.1 7.9 88 0.9 NW 17 24 9 13 1012.2 1012.3 2.8
 
Date/Time
EST
Temp
°C
App
Temp
°C
Dew
Point
Rel
Hum
%
Delta-T
°C
Wind Press
QNH
hPa
Press
MSL
hPa
Rain
since 9 am
mm
Dir
 
Spd
km/h
Gust
km/h
Spd
kts
Gust
kts
16/11:30pm 10.7 8.0 7.4 80 1.6 NNW 11 17 6 9 1012.4 - 1.8
16/11:00pm 11.8 6.8 6.6 70 2.5 W 22 32 12 17 1012.5 - 1.8
16/10:30pm 11.4 6.4 6.6 72 2.3 W 22 32 12 17 1012.6 - 1.8
16/10:00pm 11.5 6.0 6.0 69 2.6 W 24 33 13 18 1012.8 - 1.8
16/09:30pm 11.6 6.0 7.2 74 2.1 WSW 26 37 14 20 1012.9 - 1.8
16/09:00pm 11.7 8.0 9.3 85 1.2 W 19 26 10 14 1012.9 1013.0 1.8
16/08:30pm 11.2 7.3 8.6 84 1.3 W 19 28 10 15 1012.8 - 1.8
16/08:00pm 11.3 7.9 9.3 87 1.0 W 17 26 9 14 1012.8 - 1.6
16/07:30pm 11.8 8.4 9.2 84 1.3 WSW 17 28 9 15 1012.8 - 1.4
16/07:00pm 12.0 8.2 7.7 75 2.1 W 17 22 9 12 1012.6 - 1.0
16/06:30pm 11.9 8.1 7.6 75 2.1 W 17 22 9 12 1012.6 - 1.0
16/06:00pm 12.0 7.6 7.5 74 2.2 W 20 28 11 15 1012.5 1012.6 1.0
16/05:30pm 12.4 8.1 7.7 73 2.3 WSW 20 28 11 15 1012.2 - 1.0
16/05:00pm 12.2 7.4 7.5 73 2.3 WSW 22 32 12 17 1012.2 - 1.0
16/04:30pm 12.5 6.8 6.7 68 2.8 WSW 26 35 14 19 1012.2 - 1.0
16/04:00pm 12.4 6.1 5.8 64 3.1 WSW 28 41 15 22 1012.1 - 1.0
16/03:30pm 12.5 6.2 7.4 71 2.5 WSW 30 39 16 21 1011.9 - 1.0
16/03:00pm 12.3 6.1 8.0 75 2.1 WSW 30 39 16 21 1011.8 1011.9 1.0
16/02:30pm 12.4 5.8 7.9 74 2.2 WSW 32 43 17 23 1011.7 - 1.0
16/02:00pm 12.6 6.3 8.8 77 1.9 WSW 32 43 17 23 1011.4 - 1.0
16/01:30pm 13.1 6.7 9.2 77 2.0 SW 33 46 18 25 1011.2 - 1.0
16/01:00pm 12.6 6.0 8.6 76 2.0 SW 33 41 18 22 1011.2 - 1.0
16/12:30pm 12.8 6.4 8.6 75 2.1 SW 32 43 17 23 1011.5 - 1.0
16/12:00pm 12.5 6.2 8.9 79 1.8 SW 32 39 17 21 1011.7 1011.8 1.0
16/11:30am 12.4 6.5 9.2 81 1.6 SW 30 39 16 21 1011.9 - 1.0
16/11:00am 11.8 5.9 9.0 83 1.4 SSW 30 39 16 21 1011.9 - 1.0
16/10:30am 11.6 5.3 9.8 89 0.9 SSW 33 44 18 24 1011.9 - 1.0
16/10:00am 11.3 4.3 10.1 92 0.6 SSW 37 46 20 25 1011.8 - 0.8
16/09:30am 11.5 5.9 10.3 92 0.6 SSW 30 44 16 24 1011.5 - 0.6
16/09:00am 11.9 5.5 10.6 92 0.7 SSW 35 46 19 25 1011.3 1011.4 0.0
16/08:54am 11.9 5.1 10.6 92 0.7 SSW 37 46 20 25 1011.3 - 0.0
16/08:48am 12.2 7.2 10.9 92 0.7 SSW 28 44 15 24 1011.2 - 0.0
16/08:30am 12.8 9.9 11.1 89 0.9 SSW 17 26 9 14 1011.2 - 0.0
16/08:00am 12.8 9.9 10.9 88 1.0 SSW 17 24 9 13 1011.1 - 0.0
16/07:30am 12.4 8.9 10.3 87 1.1 SSW 19 26 10 14 1010.8 - 0.0
16/07:00am 12.4 9.5 10.9 90 0.8 SSW 17 24 9 13 1010.5 - 0.0
16/06:30am 12.6 10.1 11.1 91 0.8 SSW 15 24 8 13 1010.4 - 0.0
16/06:00am 12.8 9.9 10.9 88 1.0 SSW 17 24 9 13 1010.2 1010.3 0.0
16/05:30am 12.8 10.1 10.5 86 1.2 SW 15 20 8 11 1009.9 - 0.0
16/05:00am 12.8 10.5 10.5 86 1.2 SW 13 20 7 11 1009.8 - 0.0
16/04:30am 12.8 11.2 10.3 85 1.3 N 9 13 5 7 1009.6 - 0.0
16/04:00am 12.7 11.1 10.2 85 1.3 N 9 19 5 10 1009.3 - 0.0
16/03:30am 12.6 11.0 10.1 85 1.3 SSW 9 17 5 9 1009.3 - 0.0
16/03:00am 12.7 10.3 10.2 85 1.3 ESE 13 19 7 10 1009.4 1009.4 0.0
16/02:30am 12.7 10.0 10.2 85 1.3 E 15 20 8 11 1009.7 - 0.0
16/02:00am 12.6 9.1 10.3 86 1.2 E 19 26 10 14 1009.6 - 0.0
16/01:30am 12.6 9.5 10.3 86 1.2 E 17 28 9 15 1009.6 - 0.0
16/01:00am 12.7 9.3 10.4 86 1.2 E 19 32 10 17 1010.0 - 0.0
16/12:30am 12.7 9.3 10.4 86 1.2 E 19 30 10 16 1010.2 - 0.0
16/12:00am 12.8 8.8 10.3 85 1.3 E 22 33 12 18 1010.4 1010.6 0.0
 
Date/Time
EST
Temp
°C
App
Temp
°C
Dew
Point
Rel
Hum
%
Delta-T
°C
Wind Press
QNH
hPa
Press
MSL
hPa
Rain
since 9 am
mm
Dir
 
Spd
km/h
Gust
km/h
Spd
kts
Gust
kts
15/11:30pm 12.7 8.2 10.2 85 1.3 E 24 35 13 19 1010.6 - 0.0
15/11:00pm 12.7 8.7 10.4 86 1.2 E 22 35 12 19 1010.8 - 0.0
15/10:30pm 12.7 8.7 10.6 87 1.1 E 22 33 12 18 1010.9 - 0.0
15/10:00pm 12.9 9.4 10.8 87 1.1 E 20 33 11 18 1011.0 - 0.0
15/09:30pm 12.7 8.6 10.2 85 1.3 E 22 35 12 19 1011.1 - 0.0
15/09:00pm 12.6 8.0 9.7 82 1.5 E 24 33 13 18 1011.2 1011.3 0.0
15/08:30pm 12.6 8.3 9.5 81 1.6 E 22 37 12 20 1011.5 - 0.0
15/08:00pm 12.7 8.7 8.9 78 1.9 E 20 32 11 17 1011.8 - 0.0
15/07:30pm 12.6 7.8 9.0 79 1.8 E 24 35 13 19 1011.9 - 0.0
15/07:00pm 12.4 8.1 9.5 82 1.5 E 22 37 12 20 1011.7 - 0.0
15/06:30pm 12.2 7.8 9.0 81 1.6 E 22 37 12 20 1011.5 - 0.0
15/06:00pm 12.3 7.6 9.3 82 1.5 E 24 35 13 19 1011.2 1011.3 0.0
15/05:30pm 12.2 6.6 8.6 78 1.8 E 28 43 15 23 1010.9 - 0.0
15/05:16pm 12.2 6.6 8.6 78 1.8 E 28 46 15 25 1010.6 - 0.0
15/05:14pm 12.2 6.6 8.6 78 1.8 E 28 46 15 25 1010.6 - 0.0
15/05:00pm 12.2 6.1 8.2 76 2.0 E 30 43 16 23 1010.4 - 0.0
15/04:33pm 12.0 5.8 7.7 75 2.1 E 30 50 16 27 1010.0 - 0.0
15/04:31pm 12.0 5.8 7.7 75 2.1 E 30 50 16 27 1010.0 - 0.0
15/04:30pm 12.0 5.8 7.7 75 2.1 E 30 46 16 25 1010.0 - 0.0
15/04:05pm 11.9 6.1 8.0 77 1.9 E 28 46 15 25 1010.2 - 0.0
15/04:03pm 11.9 6.1 8.0 77 1.9 E 28 46 15 25 1010.2 - 0.0
15/04:00pm 12.0 5.9 8.2 77 1.9 E 30 46 16 25 1010.2 - 0.0
15/03:30pm 11.9 7.3 8.0 77 1.9 E 22 35 12 19 1011.4 - 0.0
15/03:00pm 12.1 7.5 8.3 77 1.9 E 22 39 12 21 1011.4 1011.5 0.0
15/02:30pm 11.8 6.4 7.9 77 1.9 E 26 43 14 23 1011.7 - 0.0
15/02:00pm 12.0 7.0 8.2 77 1.9 E 24 39 13 21 1011.8 - 0.0
15/01:30pm 11.8 7.5 7.9 77 1.9 E 20 37 11 20 1012.7 - 0.0
15/01:00pm 12.5 7.8 7.8 73 2.3 E 22 39 12 21 1012.8 - 0.0
15/12:30pm 12.9 8.3 8.3 73 2.3 E 22 39 12 21 1013.4 - 0.0
15/12:00pm 12.0 7.0 7.9 76 2.0 E 24 39 13 21 1013.9 1014.1 0.0
15/11:30am 11.8 7.2 8.1 78 1.8 E 22 37 12 20 1014.2 - 0.0
15/11:00am 12.2 7.4 8.8 80 1.7 E 24 48 13 26 1014.5 - 0.0
15/10:30am 12.0 7.6 9.0 82 1.5 E 22 33 12 18 1015.1 - 0.0
15/10:00am 11.4 6.4 7.9 79 1.7 E 24 37 13 20 1015.8 - 0.0
15/09:30am 11.0 5.6 7.9 81 1.5 E 26 33 14 18 1016.3 - 0.0
15/09:00am 10.8 5.4 8.1 83 1.3 E 26 35 14 19 1016.3 1016.4 2.0
15/08:30am 10.6 5.6 8.1 84 1.2 E 24 35 13 19 1016.7 - 2.0
15/08:00am 10.2 4.9 8.4 89 0.9 E 26 33 14 18 1016.3 - 2.0
15/07:30am 10.3 6.2 8.5 89 0.9 E 20 32 11 17 1016.5 - 1.8

Other Formats:

Comma delimited format used in spreadsheet applications
http://www.bom.gov.au/fwo/IDV60801/IDV60801.94842.axf

JavaScript Object Notation format (JSON) in row-major order
http://www.bom.gov.au/fwo/IDV60801/IDV60801.94842.json